Time;durP1;ratioP1;P1;durP2;ratioP2;P2;SDS_P1;SDS_P2;PMS_P1;PMS_P2;Temp;Humidity;BMP_temperature;BMP_pressure;BME280_temperature;BME280_humidity;BME280_pressure;Samples;Min_cycle;Max_cycle;Signal;HPM_P1;HPM_P2
2022/09/03 00:02:24;;;;;;;3.03;2.10;;;14.50;1.00;;;;;;5065451;28;20438;-83
2022/09/03 00:04:58;;;;;;;1.93;1.83;;;14.50;1.00;;;;;;5065834;28;20469;-84
2022/09/03 00:07:32;;;;;;;3.33;2.23;;;14.50;1.00;;;;;;5067891;28;20446;-82
2022/09/03 00:10:04;;;;;;;2.13;1.93;;;14.40;3.40;;;;;;5065281;28;20556;-81
2022/09/03 00:12:39;;;;;;;2.63;2.30;;;14.40;1.00;;;;;;5064981;28;20441;-82
2022/09/03 00:15:09;;;;;;;1.97;1.70;;;14.60;99.90;;;;;;5068551;28;20504;-83
2022/09/03 00:17:42;;;;;;;2.43;2.23;;;14.30;26.10;;;;;;5069625;28;20437;-83
2022/09/03 00:20:13;;;;;;;3.47;2.20;;;14.30;39.40;;;;;;5068347;28;20442;-82
2022/09/03 00:22:44;;;;;;;1.77;1.67;;;14.30;46.20;;;;;;5069936;28;20426;-83
2022/09/03 00:25:17;;;;;;;1.90;1.80;;;14.30;52.70;;;;;;5072461;28;20533;-82
2022/09/03 00:27:51;;;;;;;5.43;2.07;;;14.30;99.90;;;;;;5075272;28;20443;-83
2022/09/03 00:30:19;;;;;;;2.70;1.77;;;14.20;70.10;;;;;;5075724;28;20495;-85
2022/09/03 00:32:49;;;;;;;2.20;2.03;;;14.30;94.70;;;;;;5075733;28;20449;-85
2022/09/03 00:35:23;;;;;;;3.23;2.10;;;14.30;99.90;;;;;;5075185;28;20477;-83
2022/09/03 00:37:52;;;;;;;2.83;2.20;;;14.20;99.90;;;;;;5074537;28;20434;-84
2022/09/03 00:40:38;;;;;;;2.27;2.07;;;14.10;99.90;;;;;;5074156;28;20495;-84
2022/09/03 00:43:17;;;;;;;13.20;3.03;;;14.10;99.90;;;;;;5074110;28;20430;-83
2022/09/03 00:45:55;;;;;;;1.80;1.70;;;14.10;99.90;;;;;;5074526;28;20488;-85
2022/09/03 00:48:26;;;;;;;8.67;4.87;;;14.10;99.90;;;;;;5074723;28;20548;-83
2022/09/03 00:51:11;;;;;;;4.53;2.97;;;14.10;99.90;;;;;;5074610;28;20450;-82
2022/09/03 00:53:50;;;;;;;3.90;1.80;;;14.00;99.90;;;;;;5073699;28;20426;-84
2022/09/03 00:56:26;;;;;;;4.17;1.70;;;14.00;99.90;;;;;;5074894;28;20453;-83
2022/09/03 00:59:14;;;;;;;5.90;2.23;;;14.10;99.90;;;;;;5075613;28;20422;-84
2022/09/03 01:01:48;;;;;;;2.27;2.10;;;14.00;99.90;;;;;;5075757;28;20438;-84
2022/09/03 01:04:32;;;;;;;3.43;1.67;;;13.90;99.90;;;;;;5074573;28;20452;-84
2022/09/03 01:07:09;;;;;;;2.13;2.03;;;14.00;99.90;;;;;;5074231;28;20446;-83
2022/09/03 01:09:53;;;;;;;2.70;2.10;;;14.10;99.90;;;;;;5074171;28;21028;-84
2022/09/03 01:12:33;;;;;;;3.87;2.10;;;14.00;99.90;;;;;;5073139;28;20431;-83
2022/09/03 01:15:11;;;;;;;4.67;2.10;;;14.00;99.90;;;;;;5073785;28;20533;-83
2022/09/03 01:18:00;;;;;;;2.00;1.77;;;14.00;99.90;;;;;;5072879;28;20412;-85
2022/09/03 01:20:36;;;;;;;3.20;1.80;;;14.00;99.90;;;;;;5070773;28;20458;-83
2022/09/03 01:23:47;;;;;;;1.67;1.57;;;13.90;99.90;;;;;;5073700;28;20420;-82
2022/09/03 01:26:38;;;;;;;3.83;1.77;;;14.00;99.90;;;;;;5073939;28;20461;-84
2022/09/03 01:29:17;;;;;;;2.13;2.00;;;13.90;99.90;;;;;;5078767;28;20493;-83
2022/09/03 01:31:56;;;;;;;6.40;2.20;;;13.90;99.90;;;;;;5079185;28;20422;-83
2022/09/03 01:34:35;;;;;;;2.53;2.33;;;13.80;99.90;;;;;;5079403;28;20504;-84
2022/09/03 01:37:14;;;;;;;6.07;2.10;;;13.80;99.90;;;;;;5073700;28;20430;-84
2022/09/03 01:39:54;;;;;;;3.40;1.70;;;13.80;99.90;;;;;;5072490;28;20426;-83
2022/09/03 01:42:32;;;;;;;2.83;1.90;;;13.80;99.90;;;;;;5067706;28;20441;-84
2022/09/03 01:45:24;;;;;;;1.73;1.63;;;13.80;99.90;;;;;;5065944;28;20457;-83
2022/09/03 01:48:09;;;;;;;2.03;1.83;;;13.80;99.90;;;;;;5069729;28;20476;-83
2022/09/03 01:50:45;;;;;;;2.60;2.40;;;13.80;99.90;;;;;;5070857;28;20466;-83
2022/09/03 01:53:25;;;;;;;3.73;1.80;;;13.80;99.90;;;;;;5071200;28;20452;-81
2022/09/03 01:56:08;;;;;;;2.20;2.03;;;13.80;99.90;;;;;;5072021;28;20473;-83
2022/09/03 01:58:41;;;;;;;5.03;2.07;;;13.80;99.90;;;;;;5072573;28;20430;-83
2022/09/03 02:01:17;;;;;;;1.63;1.53;;;13.70;99.90;;;;;;5071665;28;20481;-83
2022/09/03 02:03:45;;;;;;;2.10;1.70;;;13.60;99.90;;;;;;5071164;28;20497;-83
2022/09/03 02:06:13;;;;;;;2.23;2.10;;;13.60;99.90;;;;;;5071689;28;20466;-81
2022/09/03 02:08:40;;;;;;;1.67;1.57;;;13.50;99.90;;;;;;5071385;28;20445;-82
2022/09/03 02:11:09;;;;;;;2.70;2.20;;;13.50;99.90;;;;;;5071540;28;20536;-82
2022/09/03 02:13:40;;;;;;;2.50;1.87;;;13.50;99.90;;;;;;5071237;28;20484;-83
2022/09/03 02:16:15;;;;;;;2.23;1.63;;;13.50;99.90;;;;;;5072701;28;20465;-84
2022/09/03 02:18:45;;;;;;;2.23;1.90;;;13.40;1.00;;;;;;5071859;28;20433;-83
2022/09/03 02:21:16;;;;;;;1.90;1.80;;;13.40;1.00;;;;;;5071856;28;20429;-85
2022/09/03 02:23:43;;;;;;;1.67;1.57;;;13.30;1.00;;;;;;5071424;28;20430;-83
2022/09/03 02:26:15;;;;;;;3.30;1.93;;;13.30;1.00;;;;;;5071018;28;20469;-85
2022/09/03 02:28:42;;;;;;;2.23;2.00;;;13.20;1.00;;;;;;5072004;28;20459;-82
2022/09/03 02:31:09;;;;;;;2.40;2.20;;;13.20;1.00;;;;;;5072530;28;20485;-82
2022/09/03 02:33:43;;;;;;;4.90;2.60;;;13.20;1.00;;;;;;5071307;28;20475;-82
2022/09/03 02:36:13;;;;;;;5.27;1.90;;;13.20;1.00;;;;;;5071100;28;20484;-84
2022/09/03 02:38:42;;;;;;;3.53;2.03;;;13.30;1.00;;;;;;5071503;28;20441;-82
2022/09/03 02:41:13;;;;;;;2.97;1.60;;;13.10;38.30;;;;;;5070496;28;20461;-86
2022/09/03 02:43:46;;;;;;;2.77;2.10;;;13.00;77.60;;;;;;5069996;28;20449;-82
2022/09/03 02:46:17;;;;;;;3.03;2.33;;;13.00;99.90;;;;;;5069122;28;20453;-81
2022/09/03 02:48:45;;;;;;;3.43;2.10;;;13.00;91.30;;;;;;5069981;28;20930;-84
2022/09/03 02:51:12;;;;;;;2.40;2.20;;;12.90;99.90;;;;;;5068879;28;20486;-82
2022/09/03 02:53:39;;;;;;;4.00;2.90;;;13.00;99.90;;;;;;5067056;28;20504;-84
2022/09/03 02:56:06;;;;;;;3.00;1.90;;;12.90;99.90;;;;;;5066947;28;20448;-84
2022/09/03 02:58:34;;;;;;;2.40;2.20;;;12.90;99.90;;;;;;5067954;28;20818;-82
2022/09/03 03:01:01;;;;;;;2.33;1.97;;;12.80;99.90;;;;;;5068129;28;20445;-84
2022/09/03 03:03:28;;;;;;;2.33;2.13;;;12.80;99.90;;;;;;5068149;28;20807;-83
2022/09/03 03:05:57;;;;;;;2.30;2.10;;;12.80;99.90;;;;;;5067662;28;20470;-84
2022/09/03 03:08:27;;;;;;;3.90;2.07;;;12.80;99.90;;;;;;5068193;28;20452;-84
2022/09/03 03:10:58;;;;;;;2.00;1.80;;;12.70;99.90;;;;;;5068162;28;20482;-84
2022/09/03 03:13:25;;;;;;;1.80;1.70;;;12.70;99.90;;;;;;5068659;28;20435;-85
2022/09/03 03:15:55;;;;;;;2.43;2.23;;;12.70;99.90;;;;;;5060620;28;20535;-83
2022/09/03 03:18:22;;;;;;;3.17;1.97;;;12.70;99.90;;;;;;5058856;28;20450;-82
2022/09/03 03:20:49;;;;;;;2.40;2.20;;;12.80;99.90;;;;;;5057642;28;20491;-81
2022/09/03 03:23:18;;;;;;;2.07;1.87;;;12.70;99.90;;;;;;5057891;28;20454;-81
2022/09/03 03:25:44;;;;;;;2.80;2.30;;;12.80;99.90;;;;;;5064613;28;20493;-82
2022/09/03 03:28:12;;;;;;;2.40;2.20;;;12.70;99.90;;;;;;5066367;28;20539;-82
2022/09/03 03:30:41;;;;;;;10.87;2.50;;;12.70;99.90;;;;;;5065709;28;20520;-83
2022/09/03 03:33:08;;;;;;;2.10;1.90;;;12.70;99.90;;;;;;5066470;28;20476;-82
2022/09/03 03:35:35;;;;;;;3.70;2.33;;;12.70;99.90;;;;;;5065650;28;20462;-82
2022/09/03 03:38:02;;;;;;;3.10;2.27;;;12.60;99.90;;;;;;5068616;28;20974;-81
2022/09/03 03:40:31;;;;;;;4.00;1.97;;;12.60;99.90;;;;;;5067810;28;20468;-81
2022/09/03 03:42:58;;;;;;;2.23;2.03;;;12.60;99.90;;;;;;5067951;28;20437;-82
2022/09/03 03:45:25;;;;;;;2.00;1.80;;;12.60;99.90;;;;;;5065162;28;20494;-81
2022/09/03 03:47:51;;;;;;;2.30;2.10;;;12.60;99.90;;;;;;5063782;28;20438;-84
2022/09/03 03:50:19;;;;;;;5.57;1.73;;;12.50;99.90;;;;;;5064006;28;20500;-82
2022/09/03 03:52:47;;;;;;;4.63;2.10;;;12.50;1.00;;;;;;5064693;28;20464;-83
2022/09/03 03:55:14;;;;;;;1.90;1.80;;;12.50;1.00;;;;;;5063749;28;20523;-81
2022/09/03 03:57:42;;;;;;;3.87;2.07;;;12.40;1.00;;;;;;5065715;28;20452;-83
2022/09/03 04:00:10;;;;;;;2.60;2.40;;;12.50;1.00;;;;;;5068727;28;20452;-83
2022/09/03 04:02:36;;;;;;;2.23;2.10;;;12.50;1.00;;;;;;5068477;28;20445;-83
2022/09/03 04:05:04;;;;;;;3.10;2.20;;;12.50;1.00;;;;;;5070313;28;20474;-84
2022/09/03 04:07:30;;;;;;;3.83;2.57;;;12.50;1.00;;;;;;5081001;22;20596;-73
2022/09/03 04:09:57;;;;;;;2.10;1.90;;;12.40;1.00;;;;;;5056406;28;20488;-73
2022/09/03 04:12:24;;;;;;;3.20;2.63;;;12.40;1.00;;;;;;5056459;28;20866;-73
2022/09/03 04:14:52;;;;;;;2.33;2.20;;;12.40;1.00;;;;;;5056709;28;20416;-73
2022/09/03 04:17:18;;;;;;;3.30;2.40;;;12.40;1.00;;;;;;5056559;28;20470;-73
2022/09/03 04:19:46;;;;;;;4.43;2.27;;;12.40;1.00;;;;;;5056493;28;20445;-72
2022/09/03 04:22:14;;;;;;;4.50;2.73;;;12.40;1.00;;;;;;5056413;28;20454;-73
2022/09/03 04:24:41;;;;;;;3.53;2.40;;;12.40;26.10;;;;;;5056244;28;20435;-73
2022/09/03 04:27:08;;;;;;;2.47;2.37;;;12.30;36.90;;;;;;5056093;28;20469;-73
2022/09/03 04:29:34;;;;;;;3.53;2.50;;;12.30;99.90;;;;;;5056087;28;20453;-72
2022/09/03 04:34:47;;;;;;;2.93;2.73;;;12.30;99.90;;;;;;5055988;28;20383;-73
2022/09/03 04:37:15;;;;;;;3.80;2.37;;;12.30;99.90;;;;;;5056105;28;20465;-73
2022/09/03 04:39:42;;;;;;;2.90;2.67;;;12.30;99.90;;;;;;5055876;28;20876;-72
2022/09/03 04:42:08;;;;;;;3.43;2.67;;;12.40;99.90;;;;;;5055692;28;20456;-73
2022/09/03 04:44:37;;;;;;;3.20;2.90;;;12.50;97.30;;;;;;5056157;28;20446;-72
2022/09/03 04:47:05;;;;;;;4.80;2.70;;;12.50;53.50;;;;;;5055714;28;20473;-73
2022/09/03 04:49:33;;;;;;;3.13;2.35;;;12.50;99.90;;;;;;5054833;28;20501;-72
2022/09/03 04:52:00;;;;;;;3.80;2.28;;;12.50;99.90;;;;;;5054273;28;20442;-73
2022/09/03 04:54:27;;;;;;;5.07;2.67;;;12.40;99.90;;;;;;5055593;28;20199;-72
2022/09/03 04:56:53;;;;;;;4.10;2.40;;;12.50;99.90;;;;;;5054387;28;20444;-72
2022/09/03 04:59:20;;;;;;;3.20;3.00;;;12.50;99.90;;;;;;5055557;28;20203;-73
2022/09/03 05:01:47;;;;;;;3.50;3.17;;;12.60;1.00;;;;;;5055599;28;20474;-72
2022/09/03 05:04:15;;;;;;;2.77;2.53;;;12.50;99.90;;;;;;5055539;28;20456;-73
2022/09/03 05:06:42;;;;;;;3.00;2.70;;;12.60;1.00;;;;;;5055163;28;20477;-73
2022/09/03 05:09:08;;;;;;;3.40;3.10;;;12.60;1.00;;;;;;5055374;28;20450;-72
2022/09/03 05:11:36;;;;;;;5.13;3.13;;;12.70;1.00;;;;;;5054553;28;20481;-73
2022/09/03 05:14:04;;;;;;;3.90;3.00;;;12.60;1.00;;;;;;5055270;28;20504;-73
2022/09/03 05:16:31;;;;;;;3.23;2.70;;;12.70;1.00;;;;;;5055096;28;20469;-72
2022/09/03 05:18:59;;;;;;;2.90;2.70;;;12.80;1.00;;;;;;5055176;28;20453;-72
2022/09/03 05:21:28;;;;;;;3.07;2.83;;;12.70;99.90;;;;;;5055010;28;20444;-72
2022/09/03 05:23:56;;;;;;;3.00;2.80;;;12.70;99.90;;;;;;5055053;28;20793;-73
2022/09/03 05:26:25;;;;;;;3.40;2.70;;;12.70;99.90;;;;;;5054640;28;20469;-72
2022/09/03 05:28:54;;;;;;;3.20;2.90;;;12.90;1.00;;;;;;5054654;28;20438;-74
2022/09/03 05:31:24;;;;;;;3.63;3.20;;;12.90;1.00;;;;;;5055202;28;20543;-73
2022/09/03 05:33:53;;;;;;;5.53;2.90;;;12.90;99.90;;;;;;5055153;28;20862;-73
2022/09/03 05:36:22;;;;;;;4.90;3.00;;;12.90;99.90;;;;;;5054640;28;20554;-73
2022/09/03 05:38:52;;;;;;;4.70;3.20;;;13.00;99.90;;;;;;5055007;28;20471;-73
2022/09/03 05:41:20;;;;;;;3.10;2.80;;;13.00;99.90;;;;;;5054901;28;20434;-72
2022/09/03 05:43:50;;;;;;;2.63;2.43;;;13.10;99.90;;;;;;5054783;28;20498;-73
2022/09/03 05:46:17;;;;;;;3.83;2.70;;;13.20;99.90;;;;;;5055071;28;20465;-73
2022/09/03 05:48:44;;;;;;;3.10;2.73;;;13.20;66.40;;;;;;5054642;28;20545;-73
2022/09/03 05:51:15;;;;;;;3.33;3.07;;;13.20;45.20;;;;;;5054534;28;20484;-72
2022/09/03 05:53:42;;;;;;;3.50;3.30;;;13.30;1.00;;;;;;5054768;28;20469;-73
2022/09/03 05:56:12;;;;;;;5.03;2.67;;;13.20;99.90;;;;;;5054425;28;20473;-72
2022/09/03 05:58:43;;;;;;;3.23;3.03;;;13.10;99.90;;;;;;5054787;28;20446;-73
2022/09/03 06:01:11;;;;;;;3.50;2.93;;;13.20;1.00;;;;;;5054811;28;20438;-73
2022/09/03 06:03:37;;;;;;;3.33;3.10;;;13.10;1.00;;;;;;5054251;28;20454;-72
2022/09/03 06:06:06;;;;;;;4.50;3.00;;;13.10;5.70;;;;;;5053922;28;20481;-72
2022/09/03 06:08:33;;;;;;;3.03;2.73;;;13.20;21.50;;;;;;5054291;28;20453;-72
2022/09/03 06:10:59;;;;;;;3.10;2.87;;;13.20;1.00;;;;;;5054081;28;20489;-73
2022/09/03 06:13:28;;;;;;;4.07;2.87;;;13.40;1.00;;;;;;5053805;28;20424;-72
2022/09/03 06:15:56;;;;;;;4.63;4.17;;;13.30;1.00;;;;;;5053969;28;20524;-73
2022/09/03 06:18:23;;;;;;;4.07;3.07;;;13.30;1.00;;;;;;5053819;28;20449;-73
2022/09/03 06:20:54;;;;;;;2.73;2.20;;;13.30;1.00;;;;;;5054089;28;20797;-73
2022/09/03 06:23:21;;;;;;;3.20;2.90;;;13.40;1.00;;;;;;5052751;28;20914;-72
2022/09/03 06:25:48;;;;;;;4.57;3.17;;;13.40;1.00;;;;;;5054033;28;20764;-72
2022/09/03 06:28:15;;;;;;;3.07;2.83;;;13.30;1.00;;;;;;5053601;28;20456;-72
2022/09/03 06:30:43;;;;;;;3.40;2.70;;;13.40;99.90;;;;;;5054351;28;20493;-72
2022/09/03 06:33:09;;;;;;;2.80;2.60;;;13.40;31.60;;;;;;5058338;28;20454;-73
2022/09/03 06:35:36;;;;;;;8.33;3.20;;;13.40;1.00;;;;;;5058305;28;20449;-73
2022/09/03 06:38:03;;;;;;;2.43;2.33;;;13.50;1.00;;;;;;5054101;28;20543;-73
2022/09/03 06:40:30;;;;;;;4.30;2.37;;;13.60;1.00;;;;;;5053708;28;20441;-72
2022/09/03 06:43:00;;;;;;;2.40;2.30;;;13.70;1.00;;;;;;5053656;28;20458;-72
2022/09/03 06:45:27;;;;;;;2.60;2.40;;;13.70;22.40;;;;;;5053262;28;20924;-72
2022/09/03 06:47:55;;;;;;;2.60;2.40;;;13.70;99.90;;;;;;5053672;28;20892;-73
2022/09/03 06:50:23;;;;;;;2.47;2.27;;;13.80;1.00;;;;;;5053338;28;20457;-72
2022/09/03 06:52:53;;;;;;;3.20;2.30;;;13.80;42.60;;;;;;5053575;28;20452;-72
2022/09/03 06:55:20;;;;;;;3.67;3.37;;;13.80;1.00;;;;;;5054773;28;20436;-72
2022/09/03 06:57:47;;;;;;;4.00;2.63;;;13.90;1.00;;;;;;5053941;28;20544;-72
2022/09/03 07:00:15;;;;;;;3.10;2.60;;;14.10;1.00;;;;;;5053716;28;20561;-73
2022/09/03 07:02:41;;;;;;;6.23;3.40;;;14.10;1.00;;;;;;5053891;28;20445;-72
2022/09/03 07:05:10;;;;;;;4.80;2.87;;;14.20;1.00;;;;;;5053649;28;20457;-72
2022/09/03 07:07:37;;;;;;;4.50;2.47;;;14.20;1.00;;;;;;5053276;28;20481;-71
2022/09/03 07:10:04;;;;;;;5.13;2.77;;;14.30;1.00;;;;;;5053831;28;20823;-72
2022/09/03 07:12:35;;;;;;;2.63;2.43;;;14.40;99.90;;;;;;5054081;28;20524;-73
2022/09/03 07:15:02;;;;;;;3.17;2.87;;;14.40;1.00;;;;;;5054256;28;20871;-72
2022/09/03 07:17:29;;;;;;;3.03;2.73;;;14.50;1.00;;;;;;5057547;28;20473;-75
2022/09/03 07:19:55;;;;;;;15.47;10.33;;;14.50;1.00;;;;;;5054044;28;20529;-78
2022/09/03 07:22:23;;;;;;;4.10;2.40;;;14.60;1.00;;;;;;5052344;28;20481;-76
2022/09/03 07:24:51;;;;;;;3.00;2.23;;;14.60;99.90;;;;;;5053741;28;20460;-75
2022/09/03 07:27:17;;;;;;;28.10;21.23;;;14.60;1.00;;;;;;5053149;28;20881;-75
2022/09/03 07:29:44;;;;;;;4.20;2.70;;;14.60;1.00;;;;;;5053391;28;20454;-75
2022/09/03 07:32:11;;;;;;;3.97;2.83;;;14.70;99.90;;;;;;5052735;28;20484;-75
2022/09/03 07:34:38;;;;;;;3.97;2.47;;;14.80;99.90;;;;;;5055949;28;20445;-75
2022/09/03 07:37:06;;;;;;;3.27;2.40;;;14.90;99.90;;;;;;5059518;28;20465;-74
2022/09/03 07:39:34;;;;;;;3.13;2.63;;;15.00;99.90;;;;;;5059507;28;20489;-73
2022/09/03 07:42:01;;;;;;;4.00;2.60;;;15.10;99.90;;;;;;5059560;28;20449;-74
2022/09/03 07:44:28;;;;;;;3.60;2.03;;;15.20;99.90;;;;;;5059423;28;20450;-75
2022/09/03 07:46:55;;;;;;;6.87;2.40;;;15.20;1.00;;;;;;5059440;28;20465;-74
2022/09/03 07:49:22;;;;;;;2.47;2.17;;;15.20;1.00;;;;;;5059147;28;20451;-74
2022/09/03 07:51:51;;;;;;;2.17;2.07;;;15.30;1.00;;;;;;5059140;28;20993;-75
2022/09/03 07:54:19;;;;;;;3.60;2.60;;;15.40;1.00;;;;;;5059105;28;20449;-75
2022/09/03 07:56:47;;;;;;;4.33;2.07;;;15.60;99.90;;;;;;5058858;28;20473;-75
2022/09/03 07:59:15;;;;;;;2.40;1.80;;;15.80;1.00;;;;;;5059026;28;20544;-74
2022/09/03 08:01:42;;;;;;;2.80;2.60;;;15.80;1.00;;;;;;5059078;28;20544;-75
2022/09/03 08:04:10;;;;;;;2.90;2.70;;;15.80;99.90;;;;;;5058900;28;20453;-74
2022/09/03 08:06:38;;;;;;;3.37;2.33;;;15.90;1.00;;;;;;5058962;28;20903;-75
2022/09/03 08:09:07;;;;;;;4.00;2.17;;;15.80;99.90;;;;;;5059345;28;20452;-75
2022/09/03 08:11:36;;;;;;;3.37;2.17;;;15.80;99.90;;;;;;5059511;28;21007;-74
2022/09/03 08:14:06;;;;;;;3.00;2.80;;;15.80;99.90;;;;;;5058725;28;20452;-74
2022/09/03 08:16:35;;;;;;;2.63;2.43;;;15.80;99.90;;;;;;5059145;28;20468;-75
2022/09/03 08:19:02;;;;;;;3.20;3.00;;;16.00;99.90;;;;;;5059273;28;20454;-75
2022/09/03 08:21:29;;;;;;;3.10;2.00;;;16.10;99.90;;;;;;5059456;28;20456;-74
2022/09/03 08:24:01;;;;;;;2.50;2.30;;;16.20;99.90;;;;;;5058955;28;20445;-74
2022/09/03 08:26:29;;;;;;;3.00;2.20;;;16.30;99.90;;;;;;5059323;28;20899;-75
2022/09/03 08:28:55;;;;;;;2.70;2.17;;;16.40;99.90;;;;;;5058516;28;20453;-74
2022/09/03 08:31:25;;;;;;;5.37;2.83;;;16.50;99.90;;;;;;5059118;28;20523;-74
2022/09/03 08:33:53;;;;;;;3.20;2.20;;;17.00;99.90;;;;;;5059115;28;20450;-74
2022/09/03 08:36:22;;;;;;;2.37;2.17;;;16.80;99.90;;;;;;5059268;28;20477;-73
2022/09/03 08:38:53;;;;;;;2.67;1.80;;;16.90;99.90;;;;;;5059081;28;20829;-74
2022/09/03 08:41:28;;;;;;;4.73;2.70;;;16.80;79.30;;;;;;5059044;28;20426;-74
2022/09/03 08:44:09;;;;;;;2.60;2.20;;;16.90;56.50;;;;;;5059122;28;20437;-75
2022/09/03 08:46:49;;;;;;;3.40;2.47;;;16.90;1.00;;;;;;5055838;28;20469;-74
2022/09/03 08:49:22;;;;;;;3.80;2.80;;;16.90;1.00;;;;;;5055549;28;20427;-74
2022/09/03 08:51:52;;;;;;;2.33;1.90;;;17.10;1.00;;;;;;5056413;28;20466;-75
2022/09/03 08:54:21;;;;;;;2.40;2.27;;;17.30;1.80;;;;;;5055815;28;20446;-74
2022/09/03 08:56:48;;;;;;;4.13;2.50;;;17.40;1.00;;;;;;5055210;28;20470;-75
2022/09/03 08:59:15;;;;;;;2.20;2.00;;;17.40;1.00;;;;;;5055743;28;20537;-74
2022/09/03 09:01:53;;;;;;;4.00;2.20;;;17.40;1.00;;;;;;5055625;28;20867;-74
2022/09/03 09:04:30;;;;;;;4.93;2.20;;;17.40;1.00;;;;;;5055565;28;20467;-74
2022/09/03 09:07:05;;;;;;;4.40;2.00;;;17.40;17.80;;;;;;5054768;28;21015;-74
2022/09/03 09:09:39;;;;;;;2.77;2.30;;;17.50;93.40;;;;;;5055218;28;20434;-74
2022/09/03 09:12:20;;;;;;;3.57;2.03;;;17.60;1.00;;;;;;5054986;28;20946;-74
2022/09/03 09:14:52;;;;;;;2.50;2.13;;;17.70;1.00;;;;;;5055310;28;20438;-74
2022/09/03 09:17:37;;;;;;;2.80;2.47;;;17.80;1.00;;;;;;5055004;28;20470;-74
2022/09/03 09:20:09;;;;;;;2.80;2.50;;;17.90;74.40;;;;;;5055136;28;20441;-74
2022/09/03 09:22:39;;;;;;;2.40;1.87;;;18.00;1.00;;;;;;5054839;28;20989;-73
2022/09/03 09:25:13;;;;;;;3.67;3.37;;;18.00;1.00;;;;;;5054948;28;20449;-73
2022/09/03 09:27:46;;;;;;;2.60;1.73;;;18.20;1.00;;;;;;5055116;28;20503;-74
2022/09/03 09:30:16;;;;;;;5.90;2.70;;;18.20;1.00;;;;;;5055179;28;20434;-73
2022/09/03 09:32:46;;;;;;;4.83;2.53;;;18.30;1.00;;;;;;5055104;28;21024;-74
2022/09/03 09:35:14;;;;;;;5.47;2.90;;;18.40;1.00;;;;;;5054514;28;20832;-74
2022/09/03 09:37:48;;;;;;;3.80;2.33;;;18.50;1.00;;;;;;5054562;28;20496;-74
2022/09/03 09:40:25;;;;;;;2.90;2.23;;;18.60;1.00;;;;;;5055173;28;20426;-74
2022/09/03 09:42:57;;;;;;;2.93;2.20;;;18.60;1.00;;;;;;5055407;28;20422;-74
2022/09/03 09:45:24;;;;;;;5.60;2.60;;;18.70;1.00;;;;;;5055061;28;20472;-75
2022/09/03 09:47:56;;;;;;;3.00;2.03;;;18.80;1.00;;;;;;5055132;28;20505;-74
2022/09/03 09:50:22;;;;;;;3.10;2.03;;;18.90;1.00;;;;;;5054718;28;20484;-74
2022/09/03 09:53:03;;;;;;;2.57;1.73;;;19.00;1.00;;;;;;5054418;28;20485;-75
2022/09/03 09:55:29;;;;;;;3.20;1.60;;;19.00;1.00;;;;;;5054558;28;20430;-77
2022/09/03 09:58:07;;;;;;;4.80;1.70;;;18.90;1.00;;;;;;5055100;28;20453;-77
2022/09/03 10:00:36;;;;;;;2.00;1.90;;;19.10;1.00;;;;;;5054335;28;20992;-76
2022/09/03 10:03:12;;;;;;;5.10;2.30;;;19.20;1.00;;;;;;5054433;28;20473;-76
2022/09/03 10:05:40;;;;;;;2.03;1.80;;;19.20;1.00;;;;;;5054644;28;20535;-75
2022/09/03 10:08:19;;;;;;;2.33;2.03;;;19.40;1.00;;;;;;5084175;22;20477;-83
2022/09/03 10:10:49;;;;;;;1.67;1.57;;;19.50;1.00;;;;;;5056524;28;20822;-84
2022/09/03 10:13:20;;;;;;;2.60;1.70;;;19.60;1.00;;;;;;5055399;28;20489;-84
2022/09/03 10:15:51;;;;;;;2.17;1.93;;;19.70;1.00;;;;;;5055286;28;20911;-84
2022/09/03 10:18:29;;;;;;;2.83;2.13;;;19.70;1.00;;;;;;5055844;28;20977;-83
2022/09/03 10:21:03;;;;;;;4.37;2.17;;;19.70;1.00;;;;;;5055736;28;20426;-83
2022/09/03 10:23:35;;;;;;;4.80;2.10;;;19.80;1.00;;;;;;5056625;28;20436;-83
2022/09/03 10:26:06;;;;;;;2.50;1.93;;;19.80;1.00;;;;;;5056521;28;20430;-84
2022/09/03 10:28:40;;;;;;;5.33;1.77;;;19.90;1.00;;;;;;5059505;28;20430;-85
2022/09/03 10:31:35;;;;;;;6.47;2.53;;;19.80;1.00;;;;;;5056622;28;20437;-84
2022/09/03 10:34:09;;;;;;;4.00;1.80;;;19.70;1.00;;;;;;5057196;28;20430;-83
2022/09/03 10:36:41;;;;;;;2.50;2.00;;;19.70;1.00;;;;;;5057258;28;20465;-84
2022/09/03 10:39:19;;;;;;;2.40;2.03;;;19.80;1.00;;;;;;5056684;28;20425;-84
2022/09/03 10:42:01;;;;;;;2.10;1.77;;;19.70;99.90;;;;;;5056233;28;20422;-84
2022/09/03 10:44:51;;;;;;;3.57;3.10;;;19.70;1.00;;;;;;5056213;28;20481;-84
2022/09/03 10:47:34;;;;;;;2.30;1.90;;;19.80;1.00;;;;;;5056705;28;20974;-84
2022/09/03 10:50:09;;;;;;;3.33;2.20;;;19.70;99.90;;;;;;5056503;28;20465;-83
2022/09/03 10:52:49;;;;;;;2.30;1.93;;;19.70;99.90;;;;;;5055494;28;20504;-85
2022/09/03 10:55:27;;;;;;;3.47;2.00;;;19.70;1.00;;;;;;5056931;28;20434;-83
2022/09/03 10:58:02;;;;;;;3.23;1.90;;;19.70;99.90;;;;;;5055609;28;21000;-84
2022/09/03 11:00:33;;;;;;;4.20;1.63;;;19.70;99.90;;;;;;5055962;28;20817;-84
2022/09/03 11:03:23;;;;;;;2.57;2.37;;;19.90;1.00;;;;;;5055992;28;20906;-84
2022/09/03 11:06:02;;;;;;;5.73;2.60;;;20.10;1.00;;;;;;5055139;28;20870;-84
2022/09/03 11:08:34;;;;;;;4.47;1.93;;;20.20;99.90;;;;;;5055336;28;20418;-83
2022/09/03 11:11:09;;;;;;;2.00;1.77;;;20.20;99.90;;;;;;5055596;28;20425;-83
2022/09/03 11:13:41;;;;;;;3.90;1.90;;;20.30;99.90;;;;;;5055937;28;20465;-83
2022/09/03 11:16:13;;;;;;;3.30;2.50;;;20.50;1.00;;;;;;5055997;28;20453;-84
2022/09/03 11:18:44;;;;;;;4.50;1.60;;;20.10;1.00;;;;;;5056277;28;20495;-84
2022/09/03 11:21:15;;;;;;;1.93;1.70;;;20.20;99.90;;;;;;5056581;28;20438;-83
2022/09/03 11:23:45;;;;;;;2.37;1.60;;;20.30;99.90;;;;;;5057572;28;20432;-83
2022/09/03 11:26:18;;;;;;;2.77;2.00;;;20.00;1.00;;;;;;5059765;28;20500;-83
2022/09/03 11:28:56;;;;;;;3.50;3.10;;;20.50;99.90;;;;;;5060682;28;20438;-85
2022/09/03 11:31:37;;;;;;;6.30;2.27;;;20.60;99.90;;;;;;5061738;28;20940;-84
2022/09/03 11:34:09;;;;;;;2.47;2.27;;;20.60;99.90;;;;;;5061727;28;20977;-84
2022/09/03 11:36:38;;;;;;;6.43;3.20;;;20.60;99.90;;;;;;5064330;28;20461;-84
2022/09/03 11:39:18;;;;;;;3.17;1.77;;;20.60;99.90;;;;;;5062244;28;20456;-85
2022/09/03 11:41:58;;;;;;;5.47;4.40;;;20.50;99.90;;;;;;5064413;28;20862;-83
2022/09/03 11:44:35;;;;;;;3.50;2.40;;;20.70;99.90;;;;;;5064306;28;20818;-83
2022/09/03 11:47:16;;;;;;;2.20;2.00;;;20.80;99.90;;;;;;5067863;28;20469;-83
2022/09/03 11:49:49;;;;;;;4.47;2.87;;;21.00;99.90;;;;;;5067680;28;20442;-82
2022/09/03 11:52:27;;;;;;;2.70;1.60;;;21.00;99.90;;;;;;5067397;28;20473;-82
2022/09/03 11:54:54;;;;;;;6.43;2.20;;;20.80;99.90;;;;;;5067871;28;20464;-83
2022/09/03 11:57:27;;;;;;;2.40;2.20;;;20.90;99.90;;;;;;5066355;28;20477;-83
2022/09/03 11:59:55;;;;;;;2.30;2.10;;;20.90;99.90;;;;;;5067570;28;20473;-84
2022/09/03 12:02:29;;;;;;;6.07;2.43;;;20.90;99.90;;;;;;5066601;28;20513;-82
2022/09/03 12:05:21;;;;;;;2.73;2.53;;;21.10;99.90;;;;;;5065399;28;20440;-84
2022/09/03 12:08:17;;;;;;;3.10;2.10;;;21.70;1.00;;;;;;5066651;28;20504;-83
2022/09/03 12:10:53;;;;;;;2.40;2.20;;;21.40;99.90;;;;;;5066231;28;20926;-84
2022/09/03 12:13:37;;;;;;;2.80;2.60;;;21.70;99.90;;;;;;5065878;28;20901;-85
2022/09/03 12:16:31;;;;;;;4.03;2.10;;;21.50;99.90;;;;;;5067167;28;20461;-83
2022/09/03 12:19:04;;;;;;;5.93;1.90;;;21.60;99.90;;;;;;5067677;28;20453;-81
2022/09/03 12:21:54;;;;;;;4.13;2.00;;;21.50;99.90;;;;;;5068905;28;20430;-83
2022/09/03 12:24:30;;;;;;;5.87;1.80;;;21.60;99.90;;;;;;5069987;28;20452;-83
2022/09/03 12:27:06;;;;;;;1.93;1.83;;;21.60;1.00;;;;;;5070069;28;20491;-84
2022/09/03 12:29:33;;;;;;;2.33;1.80;;;21.40;99.90;;;;;;5070496;28;20421;-83
2022/09/03 12:32:10;;;;;;;2.30;1.90;;;21.40;99.90;;;;;;5071106;28;20442;-84
2022/09/03 12:34:54;;;;;;;2.67;2.33;;;21.60;99.90;;;;;;5070208;28;20433;-83
2022/09/03 12:37:43;;;;;;;1.93;1.83;;;21.60;1.00;;;;;;5069565;28;20466;-86
2022/09/03 12:40:25;;;;;;;4.60;2.30;;;21.30;1.00;;;;;;5069783;28;20456;-83
2022/09/03 12:42:53;;;;;;;3.23;2.80;;;21.30;99.90;;;;;;5071736;28;20433;-84
2022/09/03 12:45:35;;;;;;;3.90;3.37;;;21.10;1.00;;;;;;5069449;28;20473;-82
2022/09/03 12:48:15;;;;;;;6.03;3.77;;;21.00;99.90;;;;;;5070307;28;20465;-84
2022/09/03 12:50:52;;;;;;;5.90;3.43;;;21.40;1.00;;;;;;5071653;28;20457;-83
2022/09/03 12:53:32;;;;;;;12.87;8.70;;;21.00;1.00;;;;;;5069327;28;20466;-85
2022/09/03 12:56:18;;;;;;;2.73;2.53;;;21.30;1.00;;;;;;5070984;28;20430;-82
2022/09/03 12:58:54;;;;;;;3.70;2.13;;;21.00;1.00;;;;;;5070278;28;20434;-83
2022/09/03 13:01:25;;;;;;;8.63;6.40;;;21.20;99.90;;;;;;5069758;28;20429;-81
2022/09/03 13:04:02;;;;;;;2.87;2.67;;;21.30;99.90;;;;;;5071564;28;20429;-82
2022/09/03 13:06:33;;;;;;;2.70;2.20;;;21.20;99.90;;;;;;5071195;28;20556;-80
2022/09/03 13:09:02;;;;;;;3.53;2.30;;;21.30;99.90;;;;;;5071834;28;20450;-81
2022/09/03 13:11:36;;;;;;;2.87;2.60;;;21.50;99.90;;;;;;5072270;28;20434;-84
2022/09/03 13:14:05;;;;;;;6.10;3.77;;;21.40;99.90;;;;;;5072575;28;20556;-83
2022/09/03 13:17:04;;;;;;;2.67;2.20;;;21.30;99.90;;;;;;5071184;28;20457;-82
2022/09/03 13:19:37;;;;;;;2.60;2.40;;;21.10;99.90;;;;;;5069520;28;20434;-83